sensor_id;sensor_type;location;lat;lon;timestamp;pressure;altitude;pressure_sealevel;temperature
20736;BMP180;10528;52.124;5.196;2023-08-01T00:02:22;99786.00;;;22.90
20736;BMP180;10528;52.124;5.196;2023-08-01T00:04:49;99778.00;;;23.00
20736;BMP180;10528;52.124;5.196;2023-08-01T00:07:16;99787.00;;;23.00
20736;BMP180;10528;52.124;5.196;2023-08-01T00:09:43;99785.00;;;23.00
20736;BMP180;10528;52.124;5.196;2023-08-01T00:12:10;99788.00;;;23.00
20736;BMP180;10528;52.124;5.196;2023-08-01T00:14:37;99786.00;;;23.00
20736;BMP180;10528;52.124;5.196;2023-08-01T00:17:04;99789.00;;;23.00
20736;BMP180;10528;52.124;5.196;2023-08-01T00:19:31;99787.00;;;23.00
20736;BMP180;10528;52.124;5.196;2023-08-01T00:21:58;99782.00;;;23.00
20736;BMP180;10528;52.124;5.196;2023-08-01T00:24:25;99774.00;;;23.00
20736;BMP180;10528;52.124;5.196;2023-08-01T00:26:52;99771.00;;;22.90
20736;BMP180;10528;52.124;5.196;2023-08-01T00:29:23;99763.00;;;22.90
20736;BMP180;10528;52.124;5.196;2023-08-01T00:31:50;99760.00;;;22.90
20736;BMP180;10528;52.124;5.196;2023-08-01T00:34:17;99759.00;;;22.90
20736;BMP180;10528;52.124;5.196;2023-08-01T00:36:43;99754.00;;;22.90
20736;BMP180;10528;52.124;5.196;2023-08-01T00:39:10;99753.00;;;22.80
20736;BMP180;10528;52.124;5.196;2023-08-01T00:41:37;99744.00;;;22.80
20736;BMP180;10528;52.124;5.196;2023-08-01T00:44:04;99740.00;;;22.80
20736;BMP180;10528;52.124;5.196;2023-08-01T00:46:32;99734.00;;;22.80
20736;BMP180;10528;52.124;5.196;2023-08-01T00:48:59;99737.00;;;22.80
20736;BMP180;10528;52.124;5.196;2023-08-01T00:51:29;99719.00;;;22.80
20736;BMP180;10528;52.124;5.196;2023-08-01T00:53:57;99718.00;;;22.80
20736;BMP180;10528;52.124;5.196;2023-08-01T00:56:24;99703.00;;;22.80
20736;BMP180;10528;52.124;5.196;2023-08-01T00:58:51;99704.00;;;22.70
20736;BMP180;10528;52.124;5.196;2023-08-01T01:01:18;99707.00;;;22.70
20736;BMP180;10528;52.124;5.196;2023-08-01T01:03:47;99708.00;;;22.70
20736;BMP180;10528;52.124;5.196;2023-08-01T01:06:28;99710.00;;;22.70
20736;BMP180;10528;52.124;5.196;2023-08-01T01:08:58;99717.00;;;22.70
20736;BMP180;10528;52.124;5.196;2023-08-01T01:11:25;99708.00;;;22.60
20736;BMP180;10528;52.124;5.196;2023-08-01T01:13:52;99722.00;;;22.60
20736;BMP180;10528;52.124;5.196;2023-08-01T01:16:21;99709.00;;;22.60
20736;BMP180;10528;52.124;5.196;2023-08-01T01:18:48;99711.00;;;22.60
20736;BMP180;10528;52.124;5.196;2023-08-01T01:21:15;99719.00;;;22.60
20736;BMP180;10528;52.124;5.196;2023-08-01T01:23:43;99713.00;;;22.60
20736;BMP180;10528;52.124;5.196;2023-08-01T01:26:11;99721.00;;;22.50
20736;BMP180;10528;52.124;5.196;2023-08-01T01:28:40;99713.00;;;22.50
20736;BMP180;10528;52.124;5.196;2023-08-01T01:31:08;99713.00;;;22.50
20736;BMP180;10528;52.124;5.196;2023-08-01T01:33:35;99707.00;;;22.50
20736;BMP180;10528;52.124;5.196;2023-08-01T01:36:02;99713.00;;;22.50
20736;BMP180;10528;52.124;5.196;2023-08-01T01:38:29;99710.00;;;22.50
20736;BMP180;10528;52.124;5.196;2023-08-01T01:40:56;99708.00;;;22.50
20736;BMP180;10528;52.124;5.196;2023-08-01T01:43:23;99700.00;;;22.40
20736;BMP180;10528;52.124;5.196;2023-08-01T01:45:50;99706.00;;;22.40
20736;BMP180;10528;52.124;5.196;2023-08-01T01:48:17;99712.00;;;22.40
20736;BMP180;10528;52.124;5.196;2023-08-01T01:50:44;99702.00;;;22.40
20736;BMP180;10528;52.124;5.196;2023-08-01T01:53:11;99706.00;;;22.40
20736;BMP180;10528;52.124;5.196;2023-08-01T01:55:38;99700.00;;;22.40
20736;BMP180;10528;52.124;5.196;2023-08-01T01:58:06;99705.00;;;22.40
20736;BMP180;10528;52.124;5.196;2023-08-01T02:00:33;99701.00;;;22.40
20736;BMP180;10528;52.124;5.196;2023-08-01T02:03:00;99702.00;;;22.30
20736;BMP180;10528;52.124;5.196;2023-08-01T02:05:30;99702.00;;;22.30
20736;BMP180;10528;52.124;5.196;2023-08-01T02:07:57;99705.00;;;22.30
20736;BMP180;10528;52.124;5.196;2023-08-01T02:10:24;99693.00;;;22.30
20736;BMP180;10528;52.124;5.196;2023-08-01T02:12:52;99693.00;;;22.40
20736;BMP180;10528;52.124;5.196;2023-08-01T02:15:19;99692.00;;;22.40
20736;BMP180;10528;52.124;5.196;2023-08-01T02:17:46;99692.00;;;22.40
20736;BMP180;10528;52.124;5.196;2023-08-01T02:20:13;99692.00;;;22.40
20736;BMP180;10528;52.124;5.196;2023-08-01T02:22:40;99688.00;;;22.40
20736;BMP180;10528;52.124;5.196;2023-08-01T02:25:07;99700.00;;;22.40
20736;BMP180;10528;52.124;5.196;2023-08-01T02:27:34;99708.00;;;22.50
20736;BMP180;10528;52.124;5.196;2023-08-01T02:30:01;99706.00;;;22.50
20736;BMP180;10528;52.124;5.196;2023-08-01T02:32:28;99693.00;;;22.50
20736;BMP180;10528;52.124;5.196;2023-08-01T02:34:58;99700.00;;;22.50
20736;BMP180;10528;52.124;5.196;2023-08-01T02:37:25;99702.00;;;22.50
20736;BMP180;10528;52.124;5.196;2023-08-01T02:39:52;99710.00;;;22.50
20736;BMP180;10528;52.124;5.196;2023-08-01T02:42:19;99703.00;;;22.50
20736;BMP180;10528;52.124;5.196;2023-08-01T02:44:45;99702.00;;;22.40
20736;BMP180;10528;52.124;5.196;2023-08-01T02:47:12;99705.00;;;22.40
20736;BMP180;10528;52.124;5.196;2023-08-01T02:49:39;99700.00;;;22.40
20736;BMP180;10528;52.124;5.196;2023-08-01T02:52:06;99701.00;;;22.40
20736;BMP180;10528;52.124;5.196;2023-08-01T02:54:33;99703.00;;;22.40
20736;BMP180;10528;52.124;5.196;2023-08-01T02:57:00;99702.00;;;22.40
20736;BMP180;10528;52.124;5.196;2023-08-01T02:59:27;99695.00;;;22.40
20736;BMP180;10528;52.124;5.196;2023-08-01T03:01:54;99691.00;;;22.40
20736;BMP180;10528;52.124;5.196;2023-08-01T03:04:21;99690.00;;;22.40
20736;BMP180;10528;52.124;5.196;2023-08-01T03:07:06;99695.00;;;22.40
20736;BMP180;10528;52.124;5.196;2023-08-01T03:09:33;99690.00;;;22.40
20736;BMP180;10528;52.124;5.196;2023-08-01T03:12:00;99690.00;;;22.40
20736;BMP180;10528;52.124;5.196;2023-08-01T03:14:27;99687.00;;;22.40
20736;BMP180;10528;52.124;5.196;2023-08-01T03:16:54;99686.00;;;22.40
20736;BMP180;10528;52.124;5.196;2023-08-01T03:19:21;99705.00;;;22.40
20736;BMP180;10528;52.124;5.196;2023-08-01T03:21:47;99710.00;;;22.40
20736;BMP180;10528;52.124;5.196;2023-08-01T03:24:14;99702.00;;;22.40
20736;BMP180;10528;52.124;5.196;2023-08-01T03:26:41;99700.00;;;22.40
20736;BMP180;10528;52.124;5.196;2023-08-01T03:29:08;99695.00;;;22.40
20736;BMP180;10528;52.124;5.196;2023-08-01T03:31:35;99694.00;;;22.40
20736;BMP180;10528;52.124;5.196;2023-08-01T03:34:03;99686.00;;;22.40
20736;BMP180;10528;52.124;5.196;2023-08-01T03:36:29;99681.00;;;22.40
20736;BMP180;10528;52.124;5.196;2023-08-01T03:38:56;99686.00;;;22.40
20736;BMP180;10528;52.124;5.196;2023-08-01T03:41:23;99687.00;;;22.40
20736;BMP180;10528;52.124;5.196;2023-08-01T03:43:50;99691.00;;;22.40
20736;BMP180;10528;52.124;5.196;2023-08-01T03:46:17;99691.00;;;22.30
20736;BMP180;10528;52.124;5.196;2023-08-01T03:48:44;99681.00;;;22.30
20736;BMP180;10528;52.124;5.196;2023-08-01T03:51:11;99683.00;;;22.30
20736;BMP180;10528;52.124;5.196;2023-08-01T03:53:38;99693.00;;;22.30
20736;BMP180;10528;52.124;5.196;2023-08-01T03:56:04;99695.00;;;22.30
20736;BMP180;10528;52.124;5.196;2023-08-01T03:58:31;99700.00;;;22.30
20736;BMP180;10528;52.124;5.196;2023-08-01T04:00:58;99697.00;;;22.30
20736;BMP180;10528;52.124;5.196;2023-08-01T04:03:26;99704.00;;;22.30
20736;BMP180;10528;52.124;5.196;2023-08-01T04:05:53;99693.00;;;22.30
20736;BMP180;10528;52.124;5.196;2023-08-01T04:08:20;99699.00;;;22.30
20736;BMP180;10528;52.124;5.196;2023-08-01T04:10:49;99702.00;;;22.30
20736;BMP180;10528;52.124;5.196;2023-08-01T04:13:17;99698.00;;;22.30
20736;BMP180;10528;52.124;5.196;2023-08-01T04:15:45;99705.00;;;22.30
20736;BMP180;10528;52.124;5.196;2023-08-01T04:18:11;99696.00;;;22.30
20736;BMP180;10528;52.124;5.196;2023-08-01T04:20:39;99694.00;;;22.30
20736;BMP180;10528;52.124;5.196;2023-08-01T04:23:06;99696.00;;;22.30
20736;BMP180;10528;52.124;5.196;2023-08-01T04:25:33;99704.00;;;22.30
20736;BMP180;10528;52.124;5.196;2023-08-01T04:28:00;99698.00;;;22.30
20736;BMP180;10528;52.124;5.196;2023-08-01T04:30:27;99692.00;;;22.30
20736;BMP180;10528;52.124;5.196;2023-08-01T04:32:54;99695.00;;;22.30
20736;BMP180;10528;52.124;5.196;2023-08-01T04:35:21;99691.00;;;22.30
20736;BMP180;10528;52.124;5.196;2023-08-01T04:37:48;99689.00;;;22.40
20736;BMP180;10528;52.124;5.196;2023-08-01T04:40:15;99682.00;;;22.40
20736;BMP180;10528;52.124;5.196;2023-08-01T04:42:41;99688.00;;;22.40
20736;BMP180;10528;52.124;5.196;2023-08-01T04:45:09;99684.00;;;22.40
20736;BMP180;10528;52.124;5.196;2023-08-01T04:47:36;99686.00;;;22.40
20736;BMP180;10528;52.124;5.196;2023-08-01T04:50:03;99682.00;;;22.40
20736;BMP180;10528;52.124;5.196;2023-08-01T04:52:30;99686.00;;;22.50
20736;BMP180;10528;52.124;5.196;2023-08-01T04:54:57;99681.00;;;22.50
20736;BMP180;10528;52.124;5.196;2023-08-01T04:57:24;99692.00;;;22.60
20736;BMP180;10528;52.124;5.196;2023-08-01T04:59:51;99698.00;;;22.60
20736;BMP180;10528;52.124;5.196;2023-08-01T05:02:18;99703.00;;;22.70
20736;BMP180;10528;52.124;5.196;2023-08-01T05:04:45;99697.00;;;22.70
20736;BMP180;10528;52.124;5.196;2023-08-01T05:07:12;99702.00;;;22.70
20736;BMP180;10528;52.124;5.196;2023-08-01T05:09:38;99710.00;;;22.80
20736;BMP180;10528;52.124;5.196;2023-08-01T05:12:06;99710.00;;;22.80
20736;BMP180;10528;52.124;5.196;2023-08-01T05:14:33;99708.00;;;22.80
20736;BMP180;10528;52.124;5.196;2023-08-01T05:17:00;99695.00;;;22.70
20736;BMP180;10528;52.124;5.196;2023-08-01T05:19:27;99706.00;;;22.70
20736;BMP180;10528;52.124;5.196;2023-08-01T05:21:54;99706.00;;;22.70
20736;BMP180;10528;52.124;5.196;2023-08-01T05:24:21;99699.00;;;22.70
20736;BMP180;10528;52.124;5.196;2023-08-01T05:26:48;99706.00;;;22.70
20736;BMP180;10528;52.124;5.196;2023-08-01T05:29:15;99707.00;;;22.70
20736;BMP180;10528;52.124;5.196;2023-08-01T05:31:42;99709.00;;;22.70
20736;BMP180;10528;52.124;5.196;2023-08-01T05:34:09;99701.00;;;22.50
20736;BMP180;10528;52.124;5.196;2023-08-01T05:36:36;99705.00;;;22.50
20736;BMP180;10528;52.124;5.196;2023-08-01T05:39:04;99712.00;;;22.20
20736;BMP180;10528;52.124;5.196;2023-08-01T05:41:31;99699.00;;;22.30
20736;BMP180;10528;52.124;5.196;2023-08-01T05:43:58;99707.00;;;22.70
20736;BMP180;10528;52.124;5.196;2023-08-01T05:46:25;99714.00;;;22.90
20736;BMP180;10528;52.124;5.196;2023-08-01T05:48:52;99714.00;;;22.70
20736;BMP180;10528;52.124;5.196;2023-08-01T05:51:19;99717.00;;;22.80
20736;BMP180;10528;52.124;5.196;2023-08-01T05:53:46;99706.00;;;23.00
20736;BMP180;10528;52.124;5.196;2023-08-01T05:56:13;99716.00;;;22.80
20736;BMP180;10528;52.124;5.196;2023-08-01T05:58:41;99725.00;;;23.10
20736;BMP180;10528;52.124;5.196;2023-08-01T06:01:10;99730.00;;;23.40
20736;BMP180;10528;52.124;5.196;2023-08-01T06:03:38;99730.00;;;23.80
20736;BMP180;10528;52.124;5.196;2023-08-01T06:06:05;99729.00;;;24.20
20736;BMP180;10528;52.124;5.196;2023-08-01T06:08:32;99727.00;;;24.50
20736;BMP180;10528;52.124;5.196;2023-08-01T06:10:59;99724.00;;;24.80
20736;BMP180;10528;52.124;5.196;2023-08-01T06:13:26;99730.00;;;25.00
20736;BMP180;10528;52.124;5.196;2023-08-01T06:15:53;99735.00;;;25.20
20736;BMP180;10528;52.124;5.196;2023-08-01T06:18:22;99738.00;;;25.30
20736;BMP180;10528;52.124;5.196;2023-08-01T06:20:49;99732.00;;;25.40
20736;BMP180;10528;52.124;5.196;2023-08-01T06:23:15;99735.00;;;25.40
20736;BMP180;10528;52.124;5.196;2023-08-01T06:25:42;99742.00;;;25.30
20736;BMP180;10528;52.124;5.196;2023-08-01T06:28:09;99752.00;;;25.50
20736;BMP180;10528;52.124;5.196;2023-08-01T06:30:37;99755.00;;;25.60
20736;BMP180;10528;52.124;5.196;2023-08-01T06:33:04;99759.00;;;25.70
20736;BMP180;10528;52.124;5.196;2023-08-01T06:35:31;99766.00;;;25.80
20736;BMP180;10528;52.124;5.196;2023-08-01T06:37:57;99755.00;;;25.90
20736;BMP180;10528;52.124;5.196;2023-08-01T06:40:24;99761.00;;;26.00
20736;BMP180;10528;52.124;5.196;2023-08-01T06:42:52;99769.00;;;26.10
20736;BMP180;10528;52.124;5.196;2023-08-01T06:45:19;99765.00;;;26.10
20736;BMP180;10528;52.124;5.196;2023-08-01T06:47:45;99766.00;;;26.10
20736;BMP180;10528;52.124;5.196;2023-08-01T06:50:12;99761.00;;;26.00
20736;BMP180;10528;52.124;5.196;2023-08-01T06:52:39;99764.00;;;26.00
20736;BMP180;10528;52.124;5.196;2023-08-01T06:55:07;99753.00;;;26.00
20736;BMP180;10528;52.124;5.196;2023-08-01T06:57:33;99748.00;;;25.90
20736;BMP180;10528;52.124;5.196;2023-08-01T07:00:01;99764.00;;;25.90
20736;BMP180;10528;52.124;5.196;2023-08-01T07:02:27;99753.00;;;26.00
20736;BMP180;10528;52.124;5.196;2023-08-01T07:04:54;99758.00;;;26.00
20736;BMP180;10528;52.124;5.196;2023-08-01T07:07:21;99765.00;;;25.90
20736;BMP180;10528;52.124;5.196;2023-08-01T07:09:48;99758.00;;;26.00
20736;BMP180;10528;52.124;5.196;2023-08-01T07:12:15;99760.00;;;25.90
20736;BMP180;10528;52.124;5.196;2023-08-01T07:14:42;99763.00;;;25.70
20736;BMP180;10528;52.124;5.196;2023-08-01T07:17:09;99757.00;;;25.60
20736;BMP180;10528;52.124;5.196;2023-08-01T07:19:36;99758.00;;;25.40
20736;BMP180;10528;52.124;5.196;2023-08-01T07:22:03;99759.00;;;25.30
20736;BMP180;10528;52.124;5.196;2023-08-01T07:24:30;99770.00;;;25.20
20736;BMP180;10528;52.124;5.196;2023-08-01T07:26:57;99766.00;;;25.10
20736;BMP180;10528;52.124;5.196;2023-08-01T07:29:24;99776.00;;;25.10
20736;BMP180;10528;52.124;5.196;2023-08-01T07:31:51;99772.00;;;25.10
20736;BMP180;10528;52.124;5.196;2023-08-01T07:34:18;99764.00;;;25.00
20736;BMP180;10528;52.124;5.196;2023-08-01T07:36:48;99772.00;;;25.00
20736;BMP180;10528;52.124;5.196;2023-08-01T07:39:17;99768.00;;;25.00
20736;BMP180;10528;52.124;5.196;2023-08-01T07:41:44;99771.00;;;24.90
20736;BMP180;10528;52.124;5.196;2023-08-01T07:44:11;99758.00;;;24.80
20736;BMP180;10528;52.124;5.196;2023-08-01T07:46:38;99775.00;;;24.80
20736;BMP180;10528;52.124;5.196;2023-08-01T07:49:05;99781.00;;;24.90
20736;BMP180;10528;52.124;5.196;2023-08-01T07:51:32;99784.00;;;25.10
20736;BMP180;10528;52.124;5.196;2023-08-01T07:54:00;99781.00;;;25.20
20736;BMP180;10528;52.124;5.196;2023-08-01T07:56:27;99770.00;;;25.40
20736;BMP180;10528;52.124;5.196;2023-08-01T07:58:54;99772.00;;;25.50
20736;BMP180;10528;52.124;5.196;2023-08-01T08:01:21;99781.00;;;25.60
20736;BMP180;10528;52.124;5.196;2023-08-01T08:03:49;99777.00;;;25.70
20736;BMP180;10528;52.124;5.196;2023-08-01T08:06:16;99789.00;;;25.70
20736;BMP180;10528;52.124;5.196;2023-08-01T08:08:43;99781.00;;;25.70
20736;BMP180;10528;52.124;5.196;2023-08-01T08:11:10;99789.00;;;25.60
20736;BMP180;10528;52.124;5.196;2023-08-01T08:13:37;99790.00;;;25.60
20736;BMP180;10528;52.124;5.196;2023-08-01T08:16:04;99787.00;;;25.60
20736;BMP180;10528;52.124;5.196;2023-08-01T08:18:32;99788.00;;;25.60
20736;BMP180;10528;52.124;5.196;2023-08-01T08:20:58;99807.00;;;25.50
20736;BMP180;10528;52.124;5.196;2023-08-01T08:23:25;99800.00;;;25.50
20736;BMP180;10528;52.124;5.196;2023-08-01T08:25:53;99798.00;;;25.60
20736;BMP180;10528;52.124;5.196;2023-08-01T08:28:29;99803.00;;;25.70
20736;BMP180;10528;52.124;5.196;2023-08-01T08:30:57;99797.00;;;25.70
20736;BMP180;10528;52.124;5.196;2023-08-01T08:33:24;99789.00;;;25.80
20736;BMP180;10528;52.124;5.196;2023-08-01T08:35:51;99809.00;;;26.00
20736;BMP180;10528;52.124;5.196;2023-08-01T08:38:18;99801.00;;;26.00
20736;BMP180;10528;52.124;5.196;2023-08-01T08:41:25;99799.00;;;26.00
20736;BMP180;10528;52.124;5.196;2023-08-01T08:43:56;99804.00;;;26.20
20736;BMP180;10528;52.124;5.196;2023-08-01T08:46:29;99802.00;;;26.20
20736;BMP180;10528;52.124;5.196;2023-08-01T08:48:57;99807.00;;;26.20
20736;BMP180;10528;52.124;5.196;2023-08-01T08:51:28;99804.00;;;26.20
20736;BMP180;10528;52.124;5.196;2023-08-01T08:53:57;99795.00;;;26.30
20736;BMP180;10528;52.124;5.196;2023-08-01T08:56:28;99803.00;;;26.30
20736;BMP180;10528;52.124;5.196;2023-08-01T08:58:56;99821.00;;;26.20
20736;BMP180;10528;52.124;5.196;2023-08-01T09:01:24;99818.00;;;26.10
20736;BMP180;10528;52.124;5.196;2023-08-01T09:03:50;99833.00;;;26.00
20736;BMP180;10528;52.124;5.196;2023-08-01T09:06:24;99818.00;;;25.80
20736;BMP180;10528;52.124;5.196;2023-08-01T09:09:01;99832.00;;;25.80
20736;BMP180;10528;52.124;5.196;2023-08-01T09:11:28;99829.00;;;25.70
20736;BMP180;10528;52.124;5.196;2023-08-01T09:13:55;99837.00;;;25.70
20736;BMP180;10528;52.124;5.196;2023-08-01T09:16:22;99836.00;;;25.60
20736;BMP180;10528;52.124;5.196;2023-08-01T09:18:51;99838.00;;;25.60
20736;BMP180;10528;52.124;5.196;2023-08-01T09:21:20;99836.00;;;25.60
20736;BMP180;10528;52.124;5.196;2023-08-01T09:23:47;99835.00;;;25.60
20736;BMP180;10528;52.124;5.196;2023-08-01T09:26:16;99834.00;;;25.50
20736;BMP180;10528;52.124;5.196;2023-08-01T09:28:43;99852.00;;;25.50
20736;BMP180;10528;52.124;5.196;2023-08-01T09:31:10;99857.00;;;25.40
20736;BMP180;10528;52.124;5.196;2023-08-01T09:33:40;99862.00;;;25.40
20736;BMP180;10528;52.124;5.196;2023-08-01T09:36:09;99855.00;;;25.30
20736;BMP180;10528;52.124;5.196;2023-08-01T09:38:37;99858.00;;;25.30
20736;BMP180;10528;52.124;5.196;2023-08-01T09:41:04;99860.00;;;25.30
20736;BMP180;10528;52.124;5.196;2023-08-01T09:43:36;99867.00;;;25.40
20736;BMP180;10528;52.124;5.196;2023-08-01T09:46:06;99863.00;;;25.50
20736;BMP180;10528;52.124;5.196;2023-08-01T09:48:33;99865.00;;;25.60
20736;BMP180;10528;52.124;5.196;2023-08-01T09:51:15;99861.00;;;25.70
20736;BMP180;10528;52.124;5.196;2023-08-01T09:53:55;99865.00;;;25.80
20736;BMP180;10528;52.124;5.196;2023-08-01T09:56:25;99874.00;;;25.90
20736;BMP180;10528;52.124;5.196;2023-08-01T09:58:56;99876.00;;;25.90
20736;BMP180;10528;52.124;5.196;2023-08-01T10:01:24;99863.00;;;25.90
20736;BMP180;10528;52.124;5.196;2023-08-01T10:03:53;99874.00;;;25.80
20736;BMP180;10528;52.124;5.196;2023-08-01T10:06:32;99882.00;;;25.70
20736;BMP180;10528;52.124;5.196;2023-08-01T10:09:00;99880.00;;;25.70
20736;BMP180;10528;52.124;5.196;2023-08-01T10:11:34;99875.00;;;25.60
20736;BMP180;10528;52.124;5.196;2023-08-01T10:14:03;99884.00;;;25.60
20736;BMP180;10528;52.124;5.196;2023-08-01T10:16:30;99884.00;;;25.70
20736;BMP180;10528;52.124;5.196;2023-08-01T10:18:59;99876.00;;;25.80
20736;BMP180;10528;52.124;5.196;2023-08-01T10:21:28;99888.00;;;25.90
20736;BMP180;10528;52.124;5.196;2023-08-01T10:23:58;99881.00;;;25.90
20736;BMP180;10528;52.124;5.196;2023-08-01T10:26:25;99888.00;;;25.90
20736;BMP180;10528;52.124;5.196;2023-08-01T10:28:53;99887.00;;;25.80
20736;BMP180;10528;52.124;5.196;2023-08-01T10:31:20;99890.00;;;25.80
20736;BMP180;10528;52.124;5.196;2023-08-01T10:33:50;99897.00;;;25.70
20736;BMP180;10528;52.124;5.196;2023-08-01T10:36:19;99899.00;;;25.70
20736;BMP180;10528;52.124;5.196;2023-08-01T10:38:52;99894.00;;;25.80
20736;BMP180;10528;52.124;5.196;2023-08-01T10:41:31;99887.00;;;25.90
20736;BMP180;10528;52.124;5.196;2023-08-01T10:44:15;99903.00;;;26.00
20736;BMP180;10528;52.124;5.196;2023-08-01T10:46:51;99901.00;;;26.10
20736;BMP180;10528;52.124;5.196;2023-08-01T10:49:20;99893.00;;;26.10
20736;BMP180;10528;52.124;5.196;2023-08-01T10:51:50;99894.00;;;26.20
20736;BMP180;10528;52.124;5.196;2023-08-01T10:54:23;99909.00;;;26.20
20736;BMP180;10528;52.124;5.196;2023-08-01T10:56:56;99903.00;;;26.30
20736;BMP180;10528;52.124;5.196;2023-08-01T10:59:25;99903.00;;;26.30
20736;BMP180;10528;52.124;5.196;2023-08-01T11:01:59;99915.00;;;26.20
20736;BMP180;10528;52.124;5.196;2023-08-01T11:04:27;99922.00;;;26.30
20736;BMP180;10528;52.124;5.196;2023-08-01T11:06:55;99917.00;;;26.30
20736;BMP180;10528;52.124;5.196;2023-08-01T11:09:27;99922.00;;;26.20
20736;BMP180;10528;52.124;5.196;2023-08-01T11:11:58;99924.00;;;26.20
20736;BMP180;10528;52.124;5.196;2023-08-01T11:14:27;99919.00;;;26.20
20736;BMP180;10528;52.124;5.196;2023-08-01T11:16:57;99922.00;;;26.30
20736;BMP180;10528;52.124;5.196;2023-08-01T11:19:27;99922.00;;;26.40
20736;BMP180;10528;52.124;5.196;2023-08-01T11:21:57;99923.00;;;26.50
20736;BMP180;10528;52.124;5.196;2023-08-01T11:24:25;99922.00;;;26.60
20736;BMP180;10528;52.124;5.196;2023-08-01T11:26:54;99931.00;;;26.70
20736;BMP180;10528;52.124;5.196;2023-08-01T11:29:21;99923.00;;;26.70
20736;BMP180;10528;52.124;5.196;2023-08-01T11:31:59;99926.00;;;26.70
20736;BMP180;10528;52.124;5.196;2023-08-01T11:34:26;99926.00;;;26.80
20736;BMP180;10528;52.124;5.196;2023-08-01T11:36:54;99920.00;;;26.80
20736;BMP180;10528;52.124;5.196;2023-08-01T11:39:21;99939.00;;;26.90
20736;BMP180;10528;52.124;5.196;2023-08-01T11:41:49;99934.00;;;27.00
20736;BMP180;10528;52.124;5.196;2023-08-01T11:44:16;99940.00;;;27.10
20736;BMP180;10528;52.124;5.196;2023-08-01T11:46:43;99940.00;;;27.20
20736;BMP180;10528;52.124;5.196;2023-08-01T11:49:14;99952.00;;;27.20
20736;BMP180;10528;52.124;5.196;2023-08-01T11:51:44;99944.00;;;27.30
20736;BMP180;10528;52.124;5.196;2023-08-01T11:54:12;99938.00;;;27.30
20736;BMP180;10528;52.124;5.196;2023-08-01T11:56:41;99950.00;;;27.30
20736;BMP180;10528;52.124;5.196;2023-08-01T12:01:44;99948.00;;;27.30
20736;BMP180;10528;52.124;5.196;2023-08-01T12:04:23;99946.00;;;27.30
20736;BMP180;10528;52.124;5.196;2023-08-01T12:06:50;99951.00;;;27.30
20736;BMP180;10528;52.124;5.196;2023-08-01T12:09:19;99958.00;;;27.20
20736;BMP180;10528;52.124;5.196;2023-08-01T12:11:58;99969.00;;;27.20
20736;BMP180;10528;52.124;5.196;2023-08-01T12:14:29;99972.00;;;27.20
20736;BMP180;10528;52.124;5.196;2023-08-01T12:16:56;99963.00;;;27.10
20736;BMP180;10528;52.124;5.196;2023-08-01T12:19:23;99968.00;;;27.00
20736;BMP180;10528;52.124;5.196;2023-08-01T12:21:50;99968.00;;;26.90
20736;BMP180;10528;52.124;5.196;2023-08-01T12:24:17;99969.00;;;26.80
20736;BMP180;10528;52.124;5.196;2023-08-01T12:26:44;99982.00;;;26.80
20736;BMP180;10528;52.124;5.196;2023-08-01T12:29:11;99964.00;;;26.80
20736;BMP180;10528;52.124;5.196;2023-08-01T12:31:39;99968.00;;;26.80
20736;BMP180;10528;52.124;5.196;2023-08-01T12:34:06;99965.00;;;26.70
20736;BMP180;10528;52.124;5.196;2023-08-01T12:36:33;99972.00;;;26.80
20736;BMP180;10528;52.124;5.196;2023-08-01T12:39:00;99961.00;;;26.80
20736;BMP180;10528;52.124;5.196;2023-08-01T12:41:27;99975.00;;;26.80
20736;BMP180;10528;52.124;5.196;2023-08-01T12:43:54;99984.00;;;26.80
20736;BMP180;10528;52.124;5.196;2023-08-01T12:46:21;99986.00;;;26.80
20736;BMP180;10528;52.124;5.196;2023-08-01T12:48:48;99982.00;;;26.80
20736;BMP180;10528;52.124;5.196;2023-08-01T12:51:15;99999.00;;;26.80
20736;BMP180;10528;52.124;5.196;2023-08-01T12:53:42;100010.00;;;26.80
20736;BMP180;10528;52.124;5.196;2023-08-01T12:56:12;99996.00;;;26.70
20736;BMP180;10528;52.124;5.196;2023-08-01T12:58:39;100013.00;;;26.60
20736;BMP180;10528;52.124;5.196;2023-08-01T13:01:06;100005.00;;;26.50
20736;BMP180;10528;52.124;5.196;2023-08-01T13:03:33;100016.00;;;26.40
20736;BMP180;10528;52.124;5.196;2023-08-01T13:06:00;100009.00;;;26.40
20736;BMP180;10528;52.124;5.196;2023-08-01T13:08:27;100005.00;;;26.40
20736;BMP180;10528;52.124;5.196;2023-08-01T13:10:56;100008.00;;;26.30
20736;BMP180;10528;52.124;5.196;2023-08-01T13:13:26;100010.00;;;26.30
20736;BMP180;10528;52.124;5.196;2023-08-01T13:15:53;100020.00;;;26.20
20736;BMP180;10528;52.124;5.196;2023-08-01T13:18:20;100013.00;;;26.20
20736;BMP180;10528;52.124;5.196;2023-08-01T13:20:47;100010.00;;;26.20
20736;BMP180;10528;52.124;5.196;2023-08-01T13:23:14;100006.00;;;26.20
20736;BMP180;10528;52.124;5.196;2023-08-01T13:25:41;99998.00;;;26.20
20736;BMP180;10528;52.124;5.196;2023-08-01T13:28:08;100004.00;;;26.20
20736;BMP180;10528;52.124;5.196;2023-08-01T13:30:35;99985.00;;;26.20
20736;BMP180;10528;52.124;5.196;2023-08-01T13:33:02;99997.00;;;26.10
20736;BMP180;10528;52.124;5.196;2023-08-01T13:35:29;99983.00;;;26.10
20736;BMP180;10528;52.124;5.196;2023-08-01T13:37:56;99992.00;;;26.10
20736;BMP180;10528;52.124;5.196;2023-08-01T13:40:25;99998.00;;;26.10
20736;BMP180;10528;52.124;5.196;2023-08-01T13:42:52;99999.00;;;26.00
20736;BMP180;10528;52.124;5.196;2023-08-01T13:45:19;99999.00;;;26.00
20736;BMP180;10528;52.124;5.196;2023-08-01T13:47:46;100009.00;;;26.00
20736;BMP180;10528;52.124;5.196;2023-08-01T13:50:13;100007.00;;;26.00
20736;BMP180;10528;52.124;5.196;2023-08-01T13:52:41;100014.00;;;26.00
20736;BMP180;10528;52.124;5.196;2023-08-01T13:55:09;100017.00;;;26.00
20736;BMP180;10528;52.124;5.196;2023-08-01T13:57:36;100028.00;;;26.00
20736;BMP180;10528;52.124;5.196;2023-08-01T14:00:04;100025.00;;;26.00
20736;BMP180;10528;52.124;5.196;2023-08-01T14:02:42;100019.00;;;26.00
20736;BMP180;10528;52.124;5.196;2023-08-01T14:05:09;100025.00;;;26.00
20736;BMP180;10528;52.124;5.196;2023-08-01T14:07:37;100032.00;;;26.00
20736;BMP180;10528;52.124;5.196;2023-08-01T14:10:08;100025.00;;;25.90
20736;BMP180;10528;52.124;5.196;2023-08-01T14:12:36;100030.00;;;25.90
20736;BMP180;10528;52.124;5.196;2023-08-01T14:15:03;100040.00;;;25.90
20736;BMP180;10528;52.124;5.196;2023-08-01T14:17:30;100031.00;;;25.90